MSC Bremen — A8LK7 — position and weather

sailwx.info

Track history (hours):
 
Tides and Currents Weather Stations Pressure Air Temp Water Temp Dewpoint Dewpoint Depression Visibility Wind Speed Wind Dir Waves Ship Positions

MSC Bremen

Last reported at 2016-May-02 04:33 UTC. Time now 2016-May-02 05:58 UTC.
Position N 38°39' W 010°05'.

Length 294 m; ; draft 13.7 m.

Type: Ship (hazmat cat A). MMSI: 636091270.

Date/timePositionNaut miles runAvg speedWind from/ knotsBaromVisibWave heightAir tempDewpointWater temp
2016-May-02 04:33N 38°39' W 010°05'1515.1
2016-May-02 03:33N 38°54' W 010°07'1515.2
2016-May-02 02:33N 39°09' W 010°09'1515.1
2016-May-02 01:33N 39°24' W 010°09'1515.0
2016-May-02 00:33N 39°39' W 010°08'1515.1
2016-May-01 23:33N 39°54' W 010°09'64214.8
2016-Apr-30 04:06N 49°37' W 003°51'917.6
2016-Apr-30 03:34N 49°42' W 003°38'1717.0
2016-Apr-30 02:34N 49°52' W 003°16'1616.4
2016-Apr-30 01:34N 49°58' W 002°53'1615.6
2016-Apr-30 00:33N 50°02' W 002°29'8416.4
2016-Apr-29 19:27N 50°25' W 000°24'1718.2
2016-Apr-29 18:31N 50°29' E 000°02'1718.2
2016-Apr-29 17:34N 50°34' E 000°29'3717.0
2016-Apr-29 15:24N 50°54' E 001°17'1416.6
2016-Apr-29 14:34N 51°05' E 001°32'1817.8
2016-Apr-29 13:34N 51°18' E 001°51'1414.3
2016-Apr-29 12:34N 51°21' E 002°13'1616.2
2016-Apr-29 11:33N 51°23' E 002°39'10 9.9
2016-Apr-29 10:33N 51°25' E 002°55'1817.9
2016-Apr-29 09:33N 51°25' E 003°23'1211.8
2016-Apr-29 08:33N 51°25' E 003°42'1110.9
2016-Apr-29 07:34N 51°26' E 003°60'1110.6
2016-Apr-29 06:33N 51°21' E 004°15'2 1.7
2016-Apr-29 05:33N 51°21' E 004°17'2 1.7
2016-Apr-29 04:34N 51°19' E 004°19'1 0.7
2016-Apr-29 03:31N 51°20' E 004°20'0 0.0
2016-Apr-29 02:28N 51°20' E 004°20'0 0.0
2016-Apr-29 01:31N 51°20' E 004°20'0 0.0
2016-Apr-29 00:31N 51°20' E 004°20'0 0.0
2016-Apr-28 23:31N 51°20' E 004°20'0 0.0
2016-Apr-28 22:28N 51°20' E 004°20'0 0.0
2016-Apr-28 21:31N 51°20' E 004°20'0 0.0
2016-Apr-28 20:28N 51°20' E 004°20'0 0.0
2016-Apr-28 19:31N 51°20' E 004°20'0 0.0
2016-Apr-28 18:31N 51°20' E 004°20'0 0.0
2016-Apr-28 17:31N 51°20' E 004°20'0 0.0
2016-Apr-28 16:31N 51°20' E 004°20'0 0.0
2016-Apr-28 15:31N 51°20' E 004°20'0 0.0
2016-Apr-28 14:31N 51°20' E 004°20'0 0.0
2016-Apr-28 13:31N 51°20' E 004°20'0 0.0
2016-Apr-28 12:28N 51°20' E 004°20'0 0.0
2016-Apr-28 11:31N 51°20' E 004°20'0 0.0
2016-Apr-28 10:33N 51°20' E 004°20'2 2.2
2016-Apr-28 09:33N 51°21' E 004°17'0 0.1
2016-Apr-28 08:34N 51°21' E 004°17'6 5.6
2016-Apr-28 07:34N 51°22' E 004°08'10 9.9
2016-Apr-28 06:34N 51°21' E 003°53'1312.7
2016-Apr-28 05:33N 51°25' E 003°34'1616.5
2016-Apr-28 04:34N 51°24' E 003°07'9 9.3
2016-Apr-28 03:33N 51°33' E 003°09'1212.2
2016-Apr-28 02:33N 51°45' E 003°13'4 3.7
2016-Apr-28 01:31N 51°49' E 003°15'2122.4
2016-Apr-28 00:33N 52°09' E 003°25'5122.5
2016-Apr-27 22:17N 52°57' E 003°57'1622.2
2016-Apr-27 21:34N 53°07' E 004°17'2820.7
2016-Apr-27 20:12N 53°30' E 004°45'1321.1
2016-Apr-27 19:34N 53°36' E 005°05'2222.2
2016-Apr-27 18:34N 53°44' E 005°40'2323.2
2016-Apr-27 17:34N 53°50' E 006°18'2323.2
2016-Apr-27 16:33N 53°56' E 006°56'2222.5
2016-Apr-27 15:33N 53°59' E 007°34'1514.7
2016-Apr-27 14:33N 53°52' E 007°55'1616.1
2016-Apr-27 13:33N 53°43' E 008°18'1212.1
2016-Apr-27 12:33N 53°34' E 008°33'0 0.3
2016-Apr-27 11:33N 53°34' E 008°32'0 0.0
2016-Apr-27 10:33N 53°34' E 008°32'0 0.0
2016-Apr-27 09:33N 53°34' E 008°32'0 0.0
2016-Apr-27 08:32N 53°34' E 008°32'0 0.0
2016-Apr-27 07:33N 53°34' E 008°32'0 0.0
2016-Apr-27 06:33N 53°34' E 008°32'0 0.0
2016-Apr-27 05:33N 53°34' E 008°32'0 0.0
2016-Apr-27 04:33N 53°34' E 008°32'0 0.0
2016-Apr-27 03:33N 53°34' E 008°32'0 0.0
2016-Apr-27 02:33N 53°34' E 008°32'0 0.0
2016-Apr-27 01:33N 53°34' E 008°32'0 0.0
2016-Apr-27 00:33N 53°34' E 008°32'0 0.0
2016-Apr-26 23:33N 53°34' E 008°32'0 0.0
2016-Apr-26 22:33N 53°34' E 008°32'0 0.0
2016-Apr-26 21:33N 53°34' E 008°32'0 0.0
2016-Apr-26 20:33N 53°34' E 008°32'0 0.0
2016-Apr-26 19:33N 53°34' E 008°32'0 0.0
2016-Apr-26 18:32N 53°34' E 008°32'0 0.0
2016-Apr-26 17:33N 53°34' E 008°32'0 0.0
2016-Apr-26 16:33N 53°34' E 008°32'0 0.1
2016-Apr-26 15:31N 53°34' E 008°32'9 9.1
2016-Apr-26 14:33N 53°41' E 008°22'1616.1
2016-Apr-26 13:33N 53°51' E 008°01'1212.3
2016-Apr-26 12:34N 53°54' E 007°41'9 8.6
2016-Apr-26 11:33N 54°02' E 007°49'1717.1
2016-Apr-26 10:34N 54°00' E 008°18'1414.4
2016-Apr-26 09:34N 53°55' E 008°41'1514.7
2016-Apr-26 08:33N 53°53' E 009°05'1312.7
2016-Apr-26 07:34N 53°46' E 009°24'1414.0
2016-Apr-26 06:33N 53°35' E 009°38'10 9.9
2016-Apr-26 05:34N 53°32' E 009°54'1 0.5
2016-Apr-26 04:32N 53°32' E 009°54'0 0.0
2016-Apr-26 03:31N 53°32' E 009°54'0 0.0
2016-Apr-26 02:31N 53°32' E 009°54'0 0.0
2016-Apr-26 01:31N 53°32' E 009°54'0 0.0
2016-Apr-26 00:31N 53°32' E 009°54'0 0.0
2016-Apr-25 23:31N 53°32' E 009°54'0 0.0
2016-Apr-25 22:31N 53°32' E 009°54'0 0.0
2016-Apr-25 21:31N 53°32' E 009°54'0 0.0
2016-Apr-25 20:31N 53°32' E 009°54'0 0.0
2016-Apr-25 19:31N 53°32' E 009°54'0 0.0
2016-Apr-25 18:31N 53°32' E 009°54'0 0.0
2016-Apr-25 17:31N 53°32' E 009°54'3 3.0
2016-Apr-25 16:33N 53°33' E 009°50'1212.5
2016-Apr-25 15:33N 53°39' E 009°31'1615.6
2016-Apr-25 14:34N 53°52' E 009°17'1616.0
2016-Apr-25 13:34N 53°50' E 008°50'1515.0
2016-Apr-25 12:33N 53°59' E 008°29'1514.8
2016-Apr-25 11:33N 53°59' E 008°04'1514.5
2016-Apr-25 10:34N 53°56' E 007°39'2120.5
2016-Apr-25 09:33N 53°51' E 007°05'2221.5
2016-Apr-25 08:33N 53°46' E 006°30'2121.2
2016-Apr-25 07:34N 53°40' E 005°56'2121.4
2016-Apr-25 06:33N 53°33' E 005°22'2221.5
2016-Apr-25 05:33N 53°26' E 004°48'2020.4
2016-Apr-25 04:33N 53°09' E 004°30'2121.3
2016-Apr-25 03:33N 52°50' E 004°13'2221.9
2016-Apr-25 02:33N 52°34' E 003°48'6321.1
2016-Apr-24 23:33N 52°11' E 002°11'2020.2
2016-Apr-24 22:34N 51°56' E 001°50'1110.6
2016-Apr-24 21:33N 51°53' E 001°34'1010.0
2016-Apr-24 20:33N 51°57' E 001°19'1 0.9
2016-Apr-24 19:33N 51°58' E 001°18'0 0.0
2016-Apr-24 18:33N 51°58' E 001°18'0 0.0
2016-Apr-24 17:33N 51°58' E 001°18'0 0.0
2016-Apr-24 16:33N 51°58' E 001°18'0 0.0
2016-Apr-24 15:33N 51°58' E 001°18'0 0.0
2016-Apr-24 14:33N 51°58' E 001°18'0 0.0
2016-Apr-24 13:33N 51°58' E 001°18'0 0.0
2016-Apr-24 12:33N 51°58' E 001°18'0 0.0
2016-Apr-24 11:33N 51°58' E 001°18'0 0.0
2016-Apr-24 10:33N 51°58' E 001°18'0 0.0
2016-Apr-24 09:33N 51°58' E 001°18'0 0.0
2016-Apr-24 08:33N 51°58' E 001°18'0 0.0
2016-Apr-24 07:33N 51°58' E 001°18'0 0.0
2016-Apr-24 06:33N 51°58' E 001°18'0 0.0
2016-Apr-24 05:33N 51°58' E 001°18'0 0.0
2016-Apr-24 04:33N 51°58' E 001°18'0 0.0
2016-Apr-24 03:33N 51°58' E 001°18'0 0.0
2016-Apr-24 02:33N 51°58' E 001°18'0 0.0
2016-Apr-24 01:33N 51°58' E 001°18'3 2.8
2016-Apr-24 00:33N 51°56' E 001°21'10 9.5
2016-Apr-23 23:34N 51°52' E 001°35'4 4.2
2016-Apr-23 22:34N 51°53' E 001°42'1 1.4
2016-Apr-23 21:33N 51°54' E 001°40'0 0.0
2016-Apr-23 20:33N 51°54' E 001°40'0 0.0
2016-Apr-23 19:33N 51°54' E 001°41'0 0.0
2016-Apr-23 18:33N 51°54' E 001°41'0 0.1
2016-Apr-23 17:33N 51°54' E 001°41'0 0.2
2016-Apr-23 16:33N 51°54' E 001°41'0 0.1
2016-Apr-23 15:33N 51°54' E 001°41'0 0.2
2016-Apr-23 14:33N 51°54' E 001°41'0 0.2
2016-Apr-23 13:33N 51°54' E 001°41'0 0.0
2016-Apr-23 12:33N 51°54' E 001°40'0 0.0
2016-Apr-23 11:33N 51°54' E 001°40'0 0.0
2016-Apr-23 10:33N 51°54' E 001°40'0 0.0
2016-Apr-23 09:33N 51°54' E 001°40'0 0.0
2016-Apr-23 08:33N 51°54' E 001°40'0 0.0
2016-Apr-23 07:33N 51°54' E 001°40'0 0.0
2016-Apr-23 06:33N 51°54' E 001°41'0 0.1
2016-Apr-23 05:33N 51°54' E 001°41'0 0.2
2016-Apr-23 04:33N 51°54' E 001°41'2 2.2
2016-Apr-23 03:33N 51°53' E 001°44'1312.6
2016-Apr-23 02:33N 51°41' E 001°50'1615.6
2016-Apr-23 01:33N 51°27' E 002°01'1515.5
2016-Apr-23 00:33N 51°13' E 001°50'1918.8
2016-Apr-22 23:33N 50°58' E 001°33'1818.3
2016-Apr-22 22:33N 50°41' E 001°20'3717.8
2016-Apr-22 20:29N 50°22' E 000°30'1718.4
2016-Apr-22 19:33N 50°17' E 000°05'1918.6
2016-Apr-22 18:33N 50°13' W 000°23'2019.3
2016-Apr-22 17:33N 50°08' W 000°53'2018.8
2016-Apr-22 16:30N 50°05' W 001°23'4816.2
2016-Apr-22 13:33N 49°52' W 002°35'1615.9
2016-Apr-22 12:31N 49°47' W 002°59'1617.0
2016-Apr-22 11:33N 49°39' W 003°21'6817.1
2016-Apr-22 07:33N 49°04' W 004°51'1717.5
2016-Apr-22 06:33N 48°54' W 005°13'1817.7
2016-Apr-22 05:33N 48°46' W 005°37'  
Track history (hours):
 
Tides and Currents Weather Stations Pressure Air Temp Water Temp Dewpoint Dewpoint Depression Visibility Wind Speed Wind Dir Waves Ship Positions

MSC Bremen

Last reported at 2016-May-02 04:33 UTC. Time now 2016-May-02 05:58 UTC.
Position N 38°39' W 010°05'.

Length 294 m; ; draft 13.7 m.

Type: Ship (hazmat cat A). MMSI: 636091270.

Date/timePositionNaut miles runAvg speedWind from/ knotsBaromVisibWave heightAir tempDewpointWater temp
2016-May-02 04:33N 38°39' W 010°05'1515.1
2016-May-02 03:33N 38°54' W 010°07'1515.2
2016-May-02 02:33N 39°09' W 010°09'1515.1
2016-May-02 01:33N 39°24' W 010°09'1515.0
2016-May-02 00:33N 39°39' W 010°08'1515.1
2016-May-01 23:33N 39°54' W 010°09'64214.8
2016-Apr-30 04:06N 49°37' W 003°51'917.6
2016-Apr-30 03:34N 49°42' W 003°38'1717.0
2016-Apr-30 02:34N 49°52' W 003°16'1616.4
2016-Apr-30 01:34N 49°58' W 002°53'1615.6
2016-Apr-30 00:33N 50°02' W 002°29'8416.4
2016-Apr-29 19:27N 50°25' W 000°24'1718.2
2016-Apr-29 18:31N 50°29' E 000°02'1718.2
2016-Apr-29 17:34N 50°34' E 000°29'3717.0
2016-Apr-29 15:24N 50°54' E 001°17'1416.6
2016-Apr-29 14:34N 51°05' E 001°32'1817.8
2016-Apr-29 13:34N 51°18' E 001°51'1414.3
2016-Apr-29 12:34N 51°21' E 002°13'1616.2
2016-Apr-29 11:33N 51°23' E 002°39'10 9.9
2016-Apr-29 10:33N 51°25' E 002°55'1817.9
2016-Apr-29 09:33N 51°25' E 003°23'1211.8
2016-Apr-29 08:33N 51°25' E 003°42'1110.9
2016-Apr-29 07:34N 51°26' E 003°60'1110.6
2016-Apr-29 06:33N 51°21' E 004°15'2 1.7
2016-Apr-29 05:33N 51°21' E 004°17'2 1.7
2016-Apr-29 04:34N 51°19' E 004°19'1 0.7
2016-Apr-29 03:31N 51°20' E 004°20'0 0.0
2016-Apr-29 02:28N 51°20' E 004°20'0 0.0
2016-Apr-29 01:31N 51°20' E 004°20'0 0.0
2016-Apr-29 00:31N 51°20' E 004°20'0 0.0
2016-Apr-28 23:31N 51°20' E 004°20'0 0.0
2016-Apr-28 22:28N 51°20' E 004°20'0 0.0
2016-Apr-28 21:31N 51°20' E 004°20'0 0.0
2016-Apr-28 20:28N 51°20' E 004°20'0 0.0
2016-Apr-28 19:31N 51°20' E 004°20'0 0.0
2016-Apr-28 18:31N 51°20' E 004°20'0 0.0
2016-Apr-28 17:31N 51°20' E 004°20'0 0.0
2016-Apr-28 16:31N 51°20' E 004°20'0 0.0
2016-Apr-28 15:31N 51°20' E 004°20'0 0.0
2016-Apr-28 14:31N 51°20' E 004°20'0 0.0
2016-Apr-28 13:31N 51°20' E 004°20'0 0.0
2016-Apr-28 12:28N 51°20' E 004°20'0 0.0
2016-Apr-28 11:31N 51°20' E 004°20'0 0.0
2016-Apr-28 10:33N 51°20' E 004°20'2 2.2
2016-Apr-28 09:33N 51°21' E 004°17'0 0.1
2016-Apr-28 08:34N 51°21' E 004°17'6 5.6
2016-Apr-28 07:34N 51°22' E 004°08'10 9.9
2016-Apr-28 06:34N 51°21' E 003°53'1312.7
2016-Apr-28 05:33N 51°25' E 003°34'1616.5
2016-Apr-28 04:34N 51°24' E 003°07'9 9.3
2016-Apr-28 03:33N 51°33' E 003°09'1212.2
2016-Apr-28 02:33N 51°45' E 003°13'4 3.7
2016-Apr-28 01:31N 51°49' E 003°15'2122.4
2016-Apr-28 00:33N 52°09' E 003°25'5122.5
2016-Apr-27 22:17N 52°57' E 003°57'1622.2
2016-Apr-27 21:34N 53°07' E 004°17'2820.7
2016-Apr-27 20:12N 53°30' E 004°45'1321.1
2016-Apr-27 19:34N 53°36' E 005°05'2222.2
2016-Apr-27 18:34N 53°44' E 005°40'2323.2
2016-Apr-27 17:34N 53°50' E 006°18'2323.2
2016-Apr-27 16:33N 53°56' E 006°56'2222.5
2016-Apr-27 15:33N 53°59' E 007°34'1514.7
2016-Apr-27 14:33N 53°52' E 007°55'1616.1
2016-Apr-27 13:33N 53°43' E 008°18'1212.1
2016-Apr-27 12:33N 53°34' E 008°33'0 0.3
2016-Apr-27 11:33N 53°34' E 008°32'0 0.0
2016-Apr-27 10:33N 53°34' E 008°32'0 0.0
2016-Apr-27 09:33N 53°34' E 008°32'0 0.0
2016-Apr-27 08:32N 53°34' E 008°32'0 0.0
2016-Apr-27 07:33N 53°34' E 008°32'0 0.0
2016-Apr-27 06:33N 53°34' E 008°32'0 0.0
2016-Apr-27 05:33N 53°34' E 008°32'0 0.0
2016-Apr-27 04:33N 53°34' E 008°32'0 0.0
2016-Apr-27 03:33N 53°34' E 008°32'0 0.0
2016-Apr-27 02:33N 53°34' E 008°32'0 0.0
2016-Apr-27 01:33N 53°34' E 008°32'0 0.0
2016-Apr-27 00:33N 53°34' E 008°32'0 0.0
2016-Apr-26 23:33N 53°34' E 008°32'0 0.0
2016-Apr-26 22:33N 53°34' E 008°32'0 0.0
2016-Apr-26 21:33N 53°34' E 008°32'0 0.0
2016-Apr-26 20:33N 53°34' E 008°32'0 0.0
2016-Apr-26 19:33N 53°34' E 008°32'0 0.0
2016-Apr-26 18:32N 53°34' E 008°32'0 0.0
2016-Apr-26 17:33N 53°34' E 008°32'0 0.0
2016-Apr-26 16:33N 53°34' E 008°32'0 0.1
2016-Apr-26 15:31N 53°34' E 008°32'9 9.1
2016-Apr-26 14:33N 53°41' E 008°22'1616.1
2016-Apr-26 13:33N 53°51' E 008°01'1212.3
2016-Apr-26 12:34N 53°54' E 007°41'9 8.6
2016-Apr-26 11:33N 54°02' E 007°49'1717.1
2016-Apr-26 10:34N 54°00' E 008°18'1414.4
2016-Apr-26 09:34N 53°55' E 008°41'1514.7
2016-Apr-26 08:33N 53°53' E 009°05'1312.7
2016-Apr-26 07:34N 53°46' E 009°24'1414.0
2016-Apr-26 06:33N 53°35' E 009°38'10 9.9
2016-Apr-26 05:34N 53°32' E 009°54'1 0.5
2016-Apr-26 04:32N 53°32' E 009°54'0 0.0
2016-Apr-26 03:31N 53°32' E 009°54'0 0.0
2016-Apr-26 02:31N 53°32' E 009°54'0 0.0
2016-Apr-26 01:31N 53°32' E 009°54'0 0.0
2016-Apr-26 00:31N 53°32' E 009°54'0 0.0
2016-Apr-25 23:31N 53°32' E 009°54'0 0.0
2016-Apr-25 22:31N 53°32' E 009°54'0 0.0
2016-Apr-25 21:31N 53°32' E 009°54'0 0.0
2016-Apr-25 20:31N 53°32' E 009°54'0 0.0
2016-Apr-25 19:31N 53°32' E 009°54'0 0.0
2016-Apr-25 18:31N 53°32' E 009°54'0 0.0
2016-Apr-25 17:31N 53°32' E 009°54'3 3.0
2016-Apr-25 16:33N 53°33' E 009°50'1212.5
2016-Apr-25 15:33N 53°39' E 009°31'1615.6
2016-Apr-25 14:34N 53°52' E 009°17'1616.0
2016-Apr-25 13:34N 53°50' E 008°50'1515.0
2016-Apr-25 12:33N 53°59' E 008°29'1514.8
2016-Apr-25 11:33N 53°59' E 008°04'1514.5
2016-Apr-25 10:34N 53°56' E 007°39'2120.5
2016-Apr-25 09:33N 53°51' E 007°05'2221.5
2016-Apr-25 08:33N 53°46' E 006°30'2121.2
2016-Apr-25 07:34N 53°40' E 005°56'2121.4
2016-Apr-25 06:33N 53°33' E 005°22'2221.5
2016-Apr-25 05:33N 53°26' E 004°48'2020.4
2016-Apr-25 04:33N 53°09' E 004°30'2121.3
2016-Apr-25 03:33N 52°50' E 004°13'2221.9
2016-Apr-25 02:33N 52°34' E 003°48'6321.1
2016-Apr-24 23:33N 52°11' E 002°11'2020.2
2016-Apr-24 22:34N 51°56' E 001°50'1110.6
2016-Apr-24 21:33N 51°53' E 001°34'1010.0
2016-Apr-24 20:33N 51°57' E 001°19'1 0.9
2016-Apr-24 19:33N 51°58' E 001°18'0 0.0
2016-Apr-24 18:33N 51°58' E 001°18'0 0.0
2016-Apr-24 17:33N 51°58' E 001°18'0 0.0
2016-Apr-24 16:33N 51°58' E 001°18'0 0.0
2016-Apr-24 15:33N 51°58' E 001°18'0 0.0
2016-Apr-24 14:33N 51°58' E 001°18'0 0.0
2016-Apr-24 13:33N 51°58' E 001°18'0 0.0
2016-Apr-24 12:33N 51°58' E 001°18'0 0.0
2016-Apr-24 11:33N 51°58' E 001°18'0 0.0
2016-Apr-24 10:33N 51°58' E 001°18'0 0.0
2016-Apr-24 09:33N 51°58' E 001°18'0 0.0
2016-Apr-24 08:33N 51°58' E 001°18'0 0.0
2016-Apr-24 07:33N 51°58' E 001°18'0 0.0
2016-Apr-24 06:33N 51°58' E 001°18'0 0.0
2016-Apr-24 05:33N 51°58' E 001°18'0 0.0
2016-Apr-24 04:33N 51°58' E 001°18'0 0.0
2016-Apr-24 03:33N 51°58' E 001°18'0 0.0
2016-Apr-24 02:33N 51°58' E 001°18'0 0.0
2016-Apr-24 01:33N 51°58' E 001°18'3 2.8
2016-Apr-24 00:33N 51°56' E 001°21'10 9.5
2016-Apr-23 23:34N 51°52' E 001°35'4 4.2
2016-Apr-23 22:34N 51°53' E 001°42'1 1.4
2016-Apr-23 21:33N 51°54' E 001°40'0 0.0
2016-Apr-23 20:33N 51°54' E 001°40'0 0.0
2016-Apr-23 19:33N 51°54' E 001°41'0 0.0
2016-Apr-23 18:33N 51°54' E 001°41'0 0.1
2016-Apr-23 17:33N 51°54' E 001°41'0 0.2
2016-Apr-23 16:33N 51°54' E 001°41'0 0.1
2016-Apr-23 15:33N 51°54' E 001°41'0 0.2
2016-Apr-23 14:33N 51°54' E 001°41'0 0.2
2016-Apr-23 13:33N 51°54' E 001°41'0 0.0
2016-Apr-23 12:33N 51°54' E 001°40'0 0.0
2016-Apr-23 11:33N 51°54' E 001°40'0 0.0
2016-Apr-23 10:33N 51°54' E 001°40'0 0.0
2016-Apr-23 09:33N 51°54' E 001°40'0 0.0
2016-Apr-23 08:33N 51°54' E 001°40'0 0.0
2016-Apr-23 07:33N 51°54' E 001°40'0 0.0
2016-Apr-23 06:33N 51°54' E 001°41'0 0.1
2016-Apr-23 05:33N 51°54' E 001°41'0 0.2
2016-Apr-23 04:33N 51°54' E 001°41'2 2.2
2016-Apr-23 03:33N 51°53' E 001°44'1312.6
2016-Apr-23 02:33N 51°41' E 001°50'1615.6
2016-Apr-23 01:33N 51°27' E 002°01'1515.5
2016-Apr-23 00:33N 51°13' E 001°50'1918.8
2016-Apr-22 23:33N 50°58' E 001°33'1818.3
2016-Apr-22 22:33N 50°41' E 001°20'3717.8
2016-Apr-22 20:29N 50°22' E 000°30'1718.4
2016-Apr-22 19:33N 50°17' E 000°05'1918.6
2016-Apr-22 18:33N 50°13' W 000°23'2019.3
2016-Apr-22 17:33N 50°08' W 000°53'2018.8
2016-Apr-22 16:30N 50°05' W 001°23'4816.2
2016-Apr-22 13:33N 49°52' W 002°35'1615.9
2016-Apr-22 12:31N 49°47' W 002°59'1617.0
2016-Apr-22 11:33N 49°39' W 003°21'6817.1
2016-Apr-22 07:33N 49°04' W 004°51'1717.5
2016-Apr-22 06:33N 48°54' W 005°13'1817.7
2016-Apr-22 05:33N 48°46' W 005°37'  

Dump ship's entire track history